• Join FlightAware (Why Join?)
  • Login
  • US Flag 
04:32AM EST


 

Airport Tracker/Info


-or-


 

Live Flight TrackerFlight Track Log ✈ DAL5814 ✈ 11-May-2014 ✈ CYXE - KMSP

Flight Track Log - Related Links

Times and Time Zones

All times are in EDT time to prevent confusion due to time zone crossing. See the DAL5814 flight status page for this flight to view local times or setup timezone preferences in your user account.

Time Position Orientation Groundspeed Altitude Reporting Facility
EDT Latitude Longitude Course Direction KTS MPH feet Rate Location/Type
11:00AM 52.1667 -106.7500 180° South 130 150 2,900  Level Winnipeg Center
11:01AM 52.1500 -106.8333 256° West 210 242 4,700 2,040 Climbing Winnipeg Center
11:02AM 52.0833 -106.8000 163° South 270 311 7,000 2,880 Climbing Winnipeg Center
11:03AM 51.9019 -106.0580 142° Southeast  Level Estimated
11:03AM 52.0167 -106.7000 137° Southeast 300 345 10,500  Level Winnipeg Center
11:04AM 51.8341 -105.8988 144° Southeast  Level Estimated
11:04AM 51.9500 -106.6000 137° Southeast 350 403 12,500  Level Winnipeg Center
11:05AM 51.7146 -105.8992 180° South  Level FlightAware Approximate
11:05AM 51.8667 -106.5000 143° Southeast 360 414 15,500  Level Winnipeg Center
11:06AM 51.8000 -106.3833 133° Southeast 380 437 18,000 2,280 Climbing Winnipeg Center
11:07AM 51.7167 -106.2833 143° Southeast 390 449 20,100 2,580 Climbing Winnipeg Center
11:08AM 51.6333 -106.1833 143° Southeast 380 437 23,200 2,340 Climbing Winnipeg Center
11:09AM 51.5500 -106.0500 135° Southeast 380 437 24,800 1,800 Climbing Winnipeg Center
11:10AM 51.4500 -105.9500 148° Southeast 390 449 26,800 1,500 Climbing Winnipeg Center
11:11AM 51.3833 -105.8333 132° Southeast 390 449 27,900 1,020 Climbing Winnipeg Center
11:12AM 51.2833 -105.7333 148° Southeast 410 472 28,900 1,080 Climbing Winnipeg Center
11:13AM 51.2000 -105.6000 135° Southeast 420 483 30,100 1,020 Climbing Winnipeg Center
11:14AM 51.1000 -105.4833 144° Southeast 420 483 31,000 420 Climbing Winnipeg Center
11:15AM 51.0167 -105.3500 135° Southeast 440 506 31,000  Level Winnipeg Center
11:16AM 50.9000 -105.2333 148° Southeast 440 506 31,000  Level Winnipeg Center
11:17AM 50.8167 -105.1333 143° Southeast 450 518 31,000  Level Winnipeg Center
11:18AM 50.7167 -105.0167 144° Southeast 450 518 31,000  Level Winnipeg Center
11:19AM 50.6500 -104.8333 120° Southeast 450 518 31,000  Level Winnipeg Center
11:20AM 50.5833 -104.6667 122° Southeast 450 518 31,000  Level Winnipeg Center
11:21AM 50.5000 -104.5000 128° Southeast 450 518 31,000  Level Winnipeg Center
11:22AM 50.4333 -104.3333 122° Southeast 460 529 31,000  Level Winnipeg Center
11:23AM 50.3667 -104.1833 125° Southeast 460 529 31,000  Level Winnipeg Center
11:24AM 50.2833 -103.9833 123° Southeast 460 529 31,000  Level Winnipeg Center
11:25AM 50.2333 -103.8500 120° Southeast 460 529 31,000  Level Winnipeg Center
11:26AM 50.1500 -103.6833 128° Southeast 460 529 31,000  Level Winnipeg Center
11:27AM 50.0833 -103.5167 122° Southeast 460 529 31,000  Level Winnipeg Center
11:28AM 50.0000 -103.3500 128° Southeast 460 529 31,000  Level Winnipeg Center
11:29AM 49.9333 -103.1833 122° Southeast 460 529 31,000  Level Winnipeg Center
11:30AM 49.8500 -103.0167 128° Southeast 470 541 31,000  Level Winnipeg Center
11:31AM 49.7833 -102.8500 122° Southeast 470 541 31,000  Level Winnipeg Center
11:32AM 49.7000 -102.6833 128° Southeast 470 541 31,000  Level Winnipeg Center
11:33AM 49.6333 -102.5167 122° Southeast 470 541 31,000  Level Winnipeg Center
11:34AM 49.5500 -102.3333 125° Southeast 480 552 31,000 60 Level Winnipeg Center
11:35AM 49.4833 -102.1667 122° Southeast 490 564 31,200 840 Climbing Winnipeg Center
11:36AM 49.4000 -102.0000 127° Southeast 490 564 32,700 900 Climbing Winnipeg Center
11:37AM 49.3167 -101.8500 130° Southeast 480 552 33,000 120 Climbing Winnipeg Center
11:38AM 49.2333 -101.6500 122° Southeast 480 552 33,000  Level Winnipeg Center
11:39AM 49.1500 -101.5000 130° Southeast 480 552 33,000  Level Winnipeg Center
11:40AM 49.0833 -101.3333 121° Southeast 480 552 33,000 -120 Level Winnipeg Center
11:41AM 49.0000 -101.1667 127° Southeast 480 552 32,800 -600 Descending Winnipeg Center
11:42AM 48.9333 -101.0167 124° Southeast 470 541 31,800 -900 Descending Winnipeg Center
11:43AM 48.8833 -100.8333 112° Southeast 460 529 31,000 -480 Descending Winnipeg Center
11:44AM 48.8411 -100.7131 118° Southeast 463 533 31,000  Level Minneapolis Center
11:45AM 48.7744 -100.5397 120° Southeast 472 543 31,000  Level Minneapolis Center
11:46AM 48.7056 -100.3675 121° Southeast 474 545 31,000  Level Minneapolis Center
11:47AM 48.6389 -100.1956 120° Southeast 474 545 31,000  Level Minneapolis Center
11:48AM 48.5572 -99.9894 121° Southeast 475 547 31,000  Level Minneapolis Center
11:49AM 48.4894 -99.8169 121° Southeast 476 548 31,000  Level Minneapolis Center
11:50AM 48.4194 -99.6453 122° Southeast 477 549 31,000  Level Minneapolis Center
11:51AM 48.3500 -99.4742 121° Southeast 478 550 31,000  Level Minneapolis Center
11:52AM 48.2803 -99.3017 121° Southeast 482 555 31,000  Level Minneapolis Center
11:53AM 48.2108 -99.1283 121° Southeast 482 555 31,000 -420 Level Minneapolis Center
11:54AM 48.1422 -98.9558 121° Southeast 483 556 30,200 -1,020 Descending Minneapolis Center
11:55AM 48.0744 -98.7908 122° Southeast 476 548 29,000 -600 Descending Minneapolis Center
11:56AM 48.0069 -98.6278 122° Southeast 468 539 29,000  Level Minneapolis Center
11:57AM 47.9383 -98.4658 122° Southeast 467 537 29,000  Level Minneapolis Center
11:58AM 47.8511 -98.2628 123° Southeast 473 544 29,000  Level Minneapolis Center
11:59AM 47.7786 -98.0906 122° Southeast 482 555 29,000  Level Minneapolis Center
12:00PM 47.7053 -97.9178 122° Southeast 486 559 29,000  Level Minneapolis Center
12:01PM 47.6294 -97.7425 123° Southeast 487 560 29,000  Level Minneapolis Center
12:02PM 47.5556 -97.5689 122° Southeast 488 562 29,000  Level Minneapolis Center
12:03PM 47.4819 -97.3989 123° Southeast 488 562 29,000  Level Minneapolis Center
12:04PM 47.4086 -97.2311 123° Southeast 488 562 29,000  Level Minneapolis Center
12:05PM 47.3331 -97.0619 123° Southeast 488 562 29,000  Level Minneapolis Center
12:06PM 47.2600 -96.8931 122° Southeast 491 565 29,000  Level Minneapolis Center
12:07PM 47.1856 -96.7258 123° Southeast 491 565 29,000  Level Minneapolis Center
12:08PM 47.1072 -96.5608 125° Southeast 492 566 29,000  Level Minneapolis Center
12:09PM 47.0325 -96.3947 123° Southeast 492 566 29,000  Level Minneapolis Center
12:10PM 46.9425 -96.1942 123° Southeast 492 566 29,000  Level Minneapolis Center
12:11PM 46.8661 -96.0294 124° Southeast 491 565 29,000  Level Minneapolis Center
12:12PM 46.7842 -95.8756 128° Southeast 485 558 29,000  Level Minneapolis Center
12:13PM 46.7033 -95.7192 127° Southeast 484 557 29,000  Level Minneapolis Center
12:14PM 46.6203 -95.5639 128° Southeast 484 557 29,000  Level Minneapolis Center
12:15PM 46.5336 -95.3950 127° Southeast 486 559 29,000  Level Minneapolis Center
12:16PM 46.4494 -95.2425 129° Southeast 485 558 29,000  Level Minneapolis Center
12:17PM 46.3675 -95.0878 127° Southeast 485 558 29,000  Level Minneapolis Center
12:18PM 46.2850 -94.9344 128° Southeast 485 558 29,000  Level Minneapolis Center
12:19PM 46.2017 -94.7828 128° Southeast 485 558 29,000  Level Minneapolis Center
12:20PM 46.1172 -94.6278 128° Southeast 485 558 29,000 -300 Level Minneapolis Center
12:22PM 46.0336 -94.4739 128° Southeast 486 559 28,400 -1,740 Descending Minneapolis Center
12:23PM 45.9511 -94.3225 128° Southeast 484 557 25,500 -3,120 Descending Minneapolis Center
12:24PM 45.8556 -94.1511 129° Southeast 463 533 22,100 -3,000 Descending Minneapolis Center
12:25PM 45.7806 -94.0172 129° Southeast 439 505 19,400 -2,580 Descending Minneapolis Center
12:26PM 45.7108 -93.8914 128° Southeast 406 467 16,900 -2,400 Descending Minneapolis Center
12:27PM 45.6447 -93.7739 129° Southeast 385 443 14,600 -2,220 Descending Minneapolis Center
12:28PM 45.5814 -93.6625 129° Southeast 365 420 12,400 -1,800 Descending Minneapolis Center
12:29PM 45.5142 -93.5686 136° Southeast 346 398 11,000 -1,020 Descending Minneapolis Center
12:30PM 45.4311 -93.5367 165° South 309 356 10,400 -1,320 Descending Minneapolis Center
12:31PM 45.3578 -93.5286 176° South 270 311 8,400 -1,680 Descending Minneapolis Center
12:32PM 45.2806 -93.5175 174° South 274 315 7,000 -780 Descending Minneapolis Center
12:33PM 45.1897 -93.5050 174° South 274 315 6,900 -840 Descending Minneapolis Center
12:34PM 45.1131 -93.4908 173° South 276 318 5,400 -1,440 Descending Minneapolis Center
12:35PM 45.0489 -93.4367 149° Southeast 272 313 4,000 -1,200 Descending Minneapolis Center
12:36PM 44.9894 -93.3867 149° Southeast 252 290 3,000 -540 Descending Minneapolis Center
12:37PM 44.9458 -93.3461 147° Southeast 187 215 2,900 -480 Descending Minneapolis Center
12:38PM 44.9253 -93.2950 120° Southeast 150 173 2,100 -780 Descending Minneapolis Center
12:39PM 44.9058 -93.2508 122° Southeast 137 158 1,400 -720 Descending Minneapolis Center